Rapid City, Canada
Current Conditions -  °F | °C
As of 2:00 PM on Sunday 21 Dec 2014 (Local Time) from CYBR Reporting Station
Moderate Fog Moderate Fog  
Wind Chill: 19°   Ceiling: 100
Heat Index: 27°   Visibility: 0.12mi
Dew Point: 27°   Wind: 7mph
Humidity: 100%   Direction: 80°E
Pressure: 29.5"   Gusts: NA
Location:  50.12°N, 100.03°W
Report Text: CYBR 212000Z 08006KT 1/8SM FZFG VV001 M03/M03 A2950 RMK FG8 SLP015
Loading
Personal Weather Stations






























Interactive Weather Map New forecast layout! Learn more

10-Day Weather Forecast

Advertisements
Track Severe Weather on mobile